MHLM/SAP METAR and TAF weather

Enter ICAO airport designator
Station Type Date Time Source
MHLM METAR 2020/07/06 01:00 UTC NOAA

MHLM 060100Z 01009KT 9999 SCT028CB SCT080 30/24 Q1010 A2983 RETS


Station Type Date Time Source
MHLM Decoded METAR 2020/07/06 01:00 UTC NOAA

La Mesa San Pedro Sula , Honduras (MHLM) 15-27N 087-56W 31M
Jul 05, 2020 - 09:00 PM EDT / 2020.07.06 0100 UTC
Wind: from the N (010 degrees) at 10 MPH (9 KT):0
Visibility: greater than 7 mile(s):0
Sky conditions: partly cloudy
Weather: Cumulonimbus clouds observed
Temperature: 86 F (30 C)
Heat index: 95.0 F (35.0 C):1
Dew Point: 75 F (24 C)
Relative Humidity: 70%
Pressure (altimeter): 29.83 in. Hg (1010 hPa)
ob: MHLM 060100Z 01009KT 9999 SCT028CB SCT080 30/24 Q1010 A2983 RETS
cycle: 1

Station Type Date Time Source
MHLM TAF 2020/07/05 18:05 UTC NOAA

TAF MHLM 051600Z 0518/0618 03012KT 9999 SCT028 SCT090 TX33/0520Z TN23/0612Z
TEMPO 0522/0602 8000 VCSH FEW026CB SCT028TCU
BECMG 0602/0604 9999 NSW SCT026 SCT080
BECMG 0606/0618 22004KT

Example: see airport list